Time,TemperatureF,DewpointF,PressureIn,WindDirection,WindDirectionDegrees,WindSpeedMPH,WindSpeedGustMPH,Humidity,HourlyPrecipIn,Conditions,Clouds,dailyrainin,SolarRadiationWatts/m^2,SoftwareType,DateUTC
2013-03-24 00:02:00,38.0,38.0,-100.00,ENE,70,9.0,12.0,100,0.00,,,0.05,0.000000,,2013-03-24 05:02:00,
2013-03-24 00:32:00,39.0,39.0,-100.00,East,80,3.0,10.0,100,0.00,,,0.05,0.000000,,2013-03-24 05:32:00,
2013-03-24 00:43:00,39.0,39.0,-100.00,East,80,3.0,10.0,100,0.00,,,0.05,0.000000,,2013-03-24 05:43:00,
2013-03-24 00:52:00,39.0,39.0,-100.00,East,80,3.0,10.0,100,0.00,,,0.05,0.000000,,2013-03-24 05:52:00,
2013-03-24 01:02:00,39.0,39.0,-100.00,East,80,3.0,10.0,100,0.00,,,0.05,0.000000,,2013-03-24 06:02:00,
2013-03-24 01:32:00,38.0,38.0,-100.00,ENE,60,6.0,9.0,100,0.01,,,0.06,0.000000,,2013-03-24 06:32:00,
2013-03-24 01:42:00,38.0,38.0,-100.00,ENE,60,6.0,9.0,100,0.01,,,0.06,0.000000,,2013-03-24 06:42:00,
2013-03-24 01:52:00,38.0,38.0,-100.00,ENE,60,6.0,9.0,100,0.01,,,0.06,0.000000,,2013-03-24 06:52:00,
2013-03-24 02:02:00,38.0,38.0,-100.00,ENE,60,6.0,9.0,100,0.01,,,0.06,0.000000,,2013-03-24 07:02:00,
2013-03-24 02:32:00,38.0,38.0,-100.00,NW,305,3.0,8.0,100,0.01,,,0.07,0.000000,,2013-03-24 07:32:00,
2013-03-24 02:42:00,38.0,38.0,-100.00,NW,305,3.0,8.0,100,0.01,,,0.07,0.000000,,2013-03-24 07:42:00,
2013-03-24 02:52:00,38.0,38.0,-100.00,NW,305,3.0,8.0,100,0.01,,,0.07,0.000000,,2013-03-24 07:52:00,
2013-03-24 03:03:00,38.0,38.0,-100.00,NW,305,3.0,8.0,100,0.01,,,0.07,0.000000,,2013-03-24 08:03:00,
2013-03-24 03:32:00,38.0,38.0,-100.00,West,277,4.0,11.0,100,0.01,,,0.08,0.000000,,2013-03-24 08:32:00,
2013-03-24 03:42:00,38.0,38.0,-100.00,West,277,4.0,11.0,100,0.01,,,0.08,0.000000,,2013-03-24 08:42:00,
2013-03-24 03:52:00,38.0,38.0,-100.00,West,277,4.0,11.0,100,0.01,,,0.08,0.000000,,2013-03-24 08:52:00,
2013-03-24 04:02:00,38.0,38.0,-100.00,West,277,4.0,11.0,100,0.01,,,0.08,0.000000,,2013-03-24 09:02:00,
2013-03-24 04:33:00,39.0,39.0,-100.00,SSE,161,6.0,9.0,100,0.00,,,0.08,0.000000,,2013-03-24 09:33:00,
2013-03-24 04:43:00,39.0,39.0,-100.00,SSE,161,6.0,9.0,100,0.00,,,0.08,0.000000,,2013-03-24 09:43:00,
2013-03-24 04:52:00,39.0,39.0,-100.00,SSE,161,6.0,9.0,100,0.00,,,0.08,0.000000,,2013-03-24 09:52:00,
2013-03-24 05:03:00,39.0,39.0,-100.00,SSE,161,6.0,9.0,100,0.00,,,0.08,0.000000,,2013-03-24 10:03:00,
2013-03-24 05:33:00,38.0,38.0,-100.00,WSW,237,9.0,15.0,100,0.00,,,0.08,0.000000,,2013-03-24 10:33:00,
2013-03-24 05:42:00,38.0,38.0,-100.00,WSW,237,9.0,15.0,100,0.00,,,0.08,0.000000,,2013-03-24 10:42:00,
2013-03-24 05:52:00,38.0,38.0,-100.00,WSW,237,9.0,15.0,100,0.00,,,0.08,0.000000,,2013-03-24 10:52:00,
2013-03-24 06:03:00,38.0,38.0,-100.00,WSW,237,9.0,15.0,100,0.00,,,0.08,0.000000,,2013-03-24 11:03:00,
2013-03-24 06:33:00,38.0,38.0,-100.00,WSW,257,11.0,24.0,100,0.02,,,0.10,0.000000,,2013-03-24 11:33:00,
2013-03-24 06:42:00,38.0,38.0,-100.00,WSW,257,11.0,24.0,100,0.02,,,0.10,0.000000,,2013-03-24 11:42:00,
2013-03-24 06:52:00,38.0,38.0,-100.00,WSW,257,11.0,24.0,100,0.02,,,0.10,0.000000,,2013-03-24 11:52:00,
2013-03-24 07:02:00,38.0,38.0,-100.00,WSW,257,11.0,24.0,100,0.02,,,0.10,0.000000,,2013-03-24 12:02:00,
2013-03-24 07:32:00,34.0,34.0,-100.00,West,270,12.0,26.0,100,0.00,,,0.10,0.000000,,2013-03-24 12:32:00,
2013-03-24 07:42:00,34.0,34.0,-100.00,West,270,12.0,26.0,100,0.00,,,0.10,0.000000,,2013-03-24 12:42:00,
2013-03-24 07:52:00,34.0,34.0,-100.00,West,270,12.0,26.0,100,0.00,,,0.10,0.000000,,2013-03-24 12:52:00,
2013-03-24 08:02:00,34.0,34.0,-100.00,West,270,12.0,26.0,100,0.00,,,0.10,0.000000,,2013-03-24 13:02:00,
2013-03-24 08:33:00,31.0,31.0,-100.00,West,276,13.0,25.0,100,0.00,,,0.10,8.000000,,2013-03-24 13:33:00,
2013-03-24 08:43:00,31.0,31.0,-100.00,West,276,13.0,25.0,100,0.00,,,0.10,8.000000,,2013-03-24 13:43:00,
2013-03-24 08:52:00,31.0,31.0,-100.00,West,276,13.0,25.0,100,0.00,,,0.10,8.000000,,2013-03-24 13:52:00,
2013-03-24 09:02:00,31.0,31.0,-100.00,West,276,13.0,25.0,100,0.00,,,0.10,8.000000,,2013-03-24 14:02:00,
2013-03-24 09:33:00,31.0,31.0,-100.00,WNW,282,14.0,23.0,100,0.00,,,0.10,33.000000,,2013-03-24 14:33:00,
2013-03-24 09:43:00,31.0,31.0,-100.00,WNW,282,14.0,23.0,100,0.00,,,0.10,33.000000,,2013-03-24 14:43:00,
2013-03-24 09:52:00,31.0,31.0,-100.00,WNW,282,14.0,23.0,100,0.00,,,0.10,33.000000,,2013-03-24 14:52:00,
2013-03-24 10:02:00,31.0,31.0,-100.00,WNW,282,14.0,23.0,100,0.00,,,0.10,33.000000,,2013-03-24 15:02:00,
2013-03-24 10:33:00,29.0,29.0,-100.00,WNW,291,17.0,30.0,100,0.00,,,0.10,54.000000,,2013-03-24 15:33:00,
2013-03-24 10:43:00,29.0,29.0,-100.00,WNW,291,17.0,30.0,100,0.00,,,0.10,54.000000,,2013-03-24 15:43:00,
2013-03-24 10:53:00,29.0,29.0,-100.00,WNW,291,17.0,30.0,100,0.00,,,0.10,54.000000,,2013-03-24 15:53:00,
2013-03-24 11:03:00,29.0,29.0,-100.00,WNW,291,17.0,30.0,100,0.00,,,0.10,54.000000,,2013-03-24 16:03:00,
2013-03-24 11:33:00,29.0,29.0,-100.00,WNW,302,16.0,29.0,100,0.00,,,0.10,120.000000,,2013-03-24 16:33:00,
2013-03-24 11:43:00,29.0,29.0,-100.00,WNW,302,16.0,29.0,100,0.00,,,0.10,120.000000,,2013-03-24 16:43:00,
2013-03-24 11:52:00,29.0,29.0,-100.00,WNW,302,16.0,29.0,100,0.00,,,0.10,120.000000,,2013-03-24 16:52:00,
2013-03-24 12:02:00,29.0,29.0,-100.00,WNW,302,16.0,29.0,100,0.00,,,0.10,120.000000,,2013-03-24 17:02:00,
2013-03-24 12:33:00,29.0,29.0,-100.00,NW,307,19.0,34.0,100,0.00,,,0.10,174.000000,,2013-03-24 17:33:00,
2013-03-24 12:43:00,29.0,29.0,-100.00,NW,307,19.0,34.0,100,0.00,,,0.10,174.000000,,2013-03-24 17:43:00,
2013-03-24 12:53:00,29.0,29.0,-100.00,NW,307,19.0,34.0,100,0.00,,,0.10,174.000000,,2013-03-24 17:53:00,
2013-03-24 13:03:00,29.0,29.0,-100.00,NW,307,19.0,34.0,100,0.00,,,0.10,174.000000,,2013-03-24 18:03:00,
2013-03-24 13:33:00,29.0,29.0,-100.00,NW,308,17.0,29.0,98,0.00,,,0.10,133.000000,,2013-03-24 18:33:00,
2013-03-24 13:43:00,29.0,29.0,-100.00,NW,308,17.0,29.0,98,0.00,,,0.10,133.000000,,2013-03-24 18:43:00,
2013-03-24 13:52:00,29.0,29.0,-100.00,NW,308,17.0,29.0,98,0.00,,,0.10,133.000000,,2013-03-24 18:52:00,
2013-03-24 14:02:00,29.0,29.0,-100.00,NW,308,17.0,29.0,98,0.00,,,0.10,133.000000,,2013-03-24 19:02:00,
2013-03-24 14:32:00,29.0,29.0,-100.00,NW,307,18.0,34.0,99,0.00,,,0.09,161.000000,,2013-03-24 19:32:00,
2013-03-24 14:43:00,29.0,29.0,-100.00,NW,307,18.0,34.0,99,0.00,,,0.09,161.000000,,2013-03-24 19:43:00,
2013-03-24 14:53:00,29.0,29.0,-100.00,NW,307,18.0,34.0,99,0.00,,,0.09,161.000000,,2013-03-24 19:53:00,
2013-03-24 15:03:00,29.0,29.0,-100.00,NW,307,18.0,34.0,99,0.00,,,0.09,161.000000,,2013-03-24 20:03:00,
2013-03-24 15:33:00,29.0,28.0,-100.00,NW,314,18.0,32.0,96,0.00,,,0.09,180.000000,,2013-03-24 20:33:00,
2013-03-24 15:43:00,29.0,28.0,-100.00,NW,314,18.0,32.0,96,0.00,,,0.09,180.000000,,2013-03-24 20:43:00,
2013-03-24 15:53:00,29.0,28.0,-100.00,NW,314,18.0,32.0,96,0.00,,,0.09,180.000000,,2013-03-24 20:53:00,
2013-03-24 16:02:00,29.0,28.0,-100.00,NW,314,18.0,32.0,96,0.00,,,0.09,180.000000,,2013-03-24 21:02:00,
2013-03-24 16:33:00,30.0,27.0,-100.00,NW,314,20.0,39.0,88,0.00,,,0.05,246.000000,,2013-03-24 21:33:00,
2013-03-24 16:43:00,30.0,27.0,-100.00,NW,314,20.0,39.0,88,0.00,,,0.05,246.000000,,2013-03-24 21:43:00,
2013-03-24 16:53:00,30.0,27.0,-100.00,NW,314,20.0,39.0,88,0.00,,,0.05,246.000000,,2013-03-24 21:53:00,
2013-03-24 17:03:00,30.0,27.0,-100.00,NW,314,20.0,39.0,88,0.00,,,0.05,246.000000,,2013-03-24 22:03:00,
2013-03-24 17:33:00,29.0,26.0,-100.00,NW,311,18.0,30.0,88,0.00,,,0.05,126.000000,,2013-03-24 22:33:00,
2013-03-24 17:43:00,29.0,26.0,-100.00,NW,311,18.0,30.0,88,0.00,,,0.05,126.000000,,2013-03-24 22:43:00,
2013-03-24 17:52:00,29.0,26.0,-100.00,NW,311,18.0,30.0,88,0.00,,,0.05,126.000000,,2013-03-24 22:52:00,
2013-03-24 18:03:00,29.0,26.0,-100.00,NW,311,18.0,30.0,88,0.00,,,0.05,126.000000,,2013-03-24 23:03:00,
2013-03-24 18:32:00,28.0,24.0,-100.00,NW,308,15.0,30.0,83,0.00,,,0.05,71.000000,,2013-03-24 23:32:00,
2013-03-24 18:42:00,28.0,24.0,-100.00,NW,308,15.0,30.0,83,0.00,,,0.05,71.000000,,2013-03-24 23:42:00,
2013-03-24 18:53:00,28.0,24.0,-100.00,NW,308,15.0,30.0,83,0.00,,,0.05,71.000000,,2013-03-24 23:53:00,
2013-03-24 19:02:00,28.0,24.0,-100.00,NW,308,15.0,30.0,83,0.00,,,0.05,71.000000,,2013-03-25 00:02:00,
2013-03-24 19:33:00,28.0,24.0,-100.00,NW,319,16.0,29.0,84,0.00,,,0.05,33.000000,,2013-03-25 00:33:00,
2013-03-24 19:43:00,28.0,24.0,-100.00,NW,319,16.0,29.0,84,0.00,,,0.05,33.000000,,2013-03-25 00:43:00,
2013-03-24 19:53:00,28.0,24.0,-100.00,NW,319,16.0,29.0,84,0.00,,,0.05,33.000000,,2013-03-25 00:53:00,
2013-03-24 20:02:00,28.0,24.0,-100.00,NW,319,16.0,29.0,84,0.00,,,0.05,33.000000,,2013-03-25 01:02:00,
2013-03-24 20:32:00,27.0,23.0,-100.00,NW,306,13.0,35.0,84,0.00,,,0.05,3.000000,,2013-03-25 01:32:00,
2013-03-24 20:42:00,27.0,23.0,-100.00,NW,306,13.0,35.0,84,0.00,,,0.05,3.000000,,2013-03-25 01:42:00,
2013-03-24 20:52:00,27.0,23.0,-100.00,NW,306,13.0,35.0,84,0.00,,,0.05,3.000000,,2013-03-25 01:52:00,
2013-03-24 21:02:00,27.0,23.0,-100.00,NW,306,13.0,35.0,84,0.00,,,0.05,3.000000,,2013-03-25 02:02:00,
2013-03-24 21:33:00,27.0,23.0,-100.00,NW,318,19.0,31.0,84,0.00,,,0.05,0.000000,,2013-03-25 02:33:00,
2013-03-24 21:43:00,27.0,23.0,-100.00,NW,318,19.0,31.0,84,0.00,,,0.05,0.000000,,2013-03-25 02:43:00,
2013-03-24 21:52:00,27.0,23.0,-100.00,NW,318,19.0,31.0,84,0.00,,,0.05,0.000000,,2013-03-25 02:52:00,
2013-03-24 22:02:00,27.0,23.0,-100.00,NW,318,19.0,31.0,84,0.00,,,0.05,0.000000,,2013-03-25 03:02:00,
2013-03-24 22:34:00,26.0,20.0,-100.00,NW,311,16.0,30.0,77,0.00,,,0.05,0.000000,,2013-03-25 03:34:00,
2013-03-24 22:43:00,26.0,20.0,-100.00,NW,311,16.0,30.0,77,0.00,,,0.05,0.000000,,2013-03-25 03:43:00,
2013-03-24 22:53:00,26.0,20.0,-100.00,NW,311,16.0,30.0,77,0.00,,,0.05,0.000000,,2013-03-25 03:53:00,
2013-03-24 23:02:00,26.0,20.0,-100.00,NW,311,16.0,30.0,77,0.00,,,0.05,0.000000,,2013-03-25 04:02:00,
2013-03-24 23:33:00,25.0,18.0,-100.00,NW,316,16.0,36.0,75,0.00,,,0.05,0.000000,,2013-03-25 04:33:00,
2013-03-24 23:43:00,25.0,18.0,-100.00,NW,316,16.0,36.0,75,0.00,,,0.05,0.000000,,2013-03-25 04:43:00,
2013-03-24 23:52:00,25.0,18.0,-100.00,NW,316,16.0,36.0,75,0.00,,,0.05,0.000000,,2013-03-25 04:52:00,